sensor_id;sensor_type;location;lat;lon;timestamp;pressure;altitude;pressure_sealevel;temperature;humidity
13434;BME280;6789;47.678;9.158;2023-07-13T00:03:03;96802.84;;;20.14;100.00
13434;BME280;6789;47.678;9.158;2023-07-13T00:07:56;96805.28;;;20.11;100.00
13434;BME280;6789;47.678;9.158;2023-07-13T00:12:48;96804.84;;;20.27;100.00
13434;BME280;6789;47.678;9.158;2023-07-13T00:17:40;96801.66;;;20.25;100.00
13434;BME280;6789;47.678;9.158;2023-07-13T00:22:32;96795.88;;;20.18;100.00
13434;BME280;6789;47.678;9.158;2023-07-13T00:27:24;96791.13;;;20.15;100.00
13434;BME280;6789;47.678;9.158;2023-07-13T00:32:18;96797.81;;;20.36;100.00
13434;BME280;6789;47.678;9.158;2023-07-13T00:37:10;96796.91;;;20.46;100.00
13434;BME280;6789;47.678;9.158;2023-07-13T00:42:03;96794.72;;;20.29;100.00
13434;BME280;6789;47.678;9.158;2023-07-13T00:52:07;96805.44;;;20.19;100.00
13434;BME280;6789;47.678;9.158;2023-07-13T00:57:04;96800.06;;;20.01;100.00
13434;BME280;6789;47.678;9.158;2023-07-13T01:07:07;96808.97;;;19.87;100.00
13434;BME280;6789;47.678;9.158;2023-07-13T01:12:00;96814.38;;;20.05;100.00
13434;BME280;6789;47.678;9.158;2023-07-13T01:21:59;96827.16;;;19.75;100.00
13434;BME280;6789;47.678;9.158;2023-07-13T01:26:50;96828.72;;;19.76;100.00
13434;BME280;6789;47.678;9.158;2023-07-13T01:31:42;96826.72;;;19.91;100.00
13434;BME280;6789;47.678;9.158;2023-07-13T01:36:37;96825.88;;;20.01;100.00
13434;BME280;6789;47.678;9.158;2023-07-13T01:41:42;96800.84;;;20.02;100.00
13434;BME280;6789;47.678;9.158;2023-07-13T01:46:34;96782.66;;;20.08;100.00
13434;BME280;6789;47.678;9.158;2023-07-13T01:51:26;96783.63;;;19.61;100.00
13434;BME280;6789;47.678;9.158;2023-07-13T01:56:18;96779.81;;;19.38;100.00
13434;BME280;6789;47.678;9.158;2023-07-13T02:01:10;96777.94;;;19.39;100.00
13434;BME280;6789;47.678;9.158;2023-07-13T02:06:02;96786.56;;;19.26;100.00
13434;BME280;6789;47.678;9.158;2023-07-13T02:10:54;96798.19;;;19.35;100.00
13434;BME280;6789;47.678;9.158;2023-07-13T02:15:46;96795.53;;;19.35;100.00
13434;BME280;6789;47.678;9.158;2023-07-13T02:20:41;96808.94;;;19.25;100.00
13434;BME280;6789;47.678;9.158;2023-07-13T02:31:19;96811.41;;;19.50;100.00
13434;BME280;6789;47.678;9.158;2023-07-13T02:37:02;96812.97;;;19.51;100.00
13434;BME280;6789;47.678;9.158;2023-07-13T02:41:54;96823.78;;;19.64;100.00
13434;BME280;6789;47.678;9.158;2023-07-13T02:46:46;96815.81;;;19.64;100.00
13434;BME280;6789;47.678;9.158;2023-07-13T02:51:37;96819.06;;;19.56;100.00
13434;BME280;6789;47.678;9.158;2023-07-13T02:56:31;96813.72;;;19.56;100.00
13434;BME280;6789;47.678;9.158;2023-07-13T03:01:24;96816.09;;;19.58;100.00
13434;BME280;6789;47.678;9.158;2023-07-13T03:06:17;96808.84;;;19.68;100.00
13434;BME280;6789;47.678;9.158;2023-07-13T03:11:15;96812.75;;;19.81;100.00
13434;BME280;6789;47.678;9.158;2023-07-13T03:16:09;96813.16;;;19.93;100.00
13434;BME280;6789;47.678;9.158;2023-07-13T03:21:03;96811.56;;;19.97;100.00
13434;BME280;6789;47.678;9.158;2023-07-13T03:26:21;96821.16;;;19.88;100.00
13434;BME280;6789;47.678;9.158;2023-07-13T03:31:19;96813.63;;;19.66;100.00
13434;BME280;6789;47.678;9.158;2023-07-13T03:36:19;96824.41;;;19.51;100.00
13434;BME280;6789;47.678;9.158;2023-07-13T03:41:11;96827.75;;;19.67;100.00
13434;BME280;6789;47.678;9.158;2023-07-13T03:46:03;96827.31;;;19.55;100.00
13434;BME280;6789;47.678;9.158;2023-07-13T03:50:55;96841.97;;;19.52;100.00
13434;BME280;6789;47.678;9.158;2023-07-13T03:55:47;96842.56;;;19.44;100.00
13434;BME280;6789;47.678;9.158;2023-07-13T04:00:38;96832.81;;;19.30;100.00
13434;BME280;6789;47.678;9.158;2023-07-13T04:05:30;96841.78;;;19.39;100.00
13434;BME280;6789;47.678;9.158;2023-07-13T04:10:22;96839.13;;;19.39;100.00
13434;BME280;6789;47.678;9.158;2023-07-13T04:15:14;96834.28;;;19.46;100.00
13434;BME280;6789;47.678;9.158;2023-07-13T04:20:06;96844.41;;;19.49;100.00
13434;BME280;6789;47.678;9.158;2023-07-13T04:24:58;96844.13;;;19.50;100.00
13434;BME280;6789;47.678;9.158;2023-07-13T04:29:50;96857.03;;;19.67;100.00
13434;BME280;6789;47.678;9.158;2023-07-13T04:35:03;96857.66;;;19.54;100.00
13434;BME280;6789;47.678;9.158;2023-07-13T04:40:20;96867.53;;;19.48;100.00
13434;BME280;6789;47.678;9.158;2023-07-13T05:26:48;96899.31;;;20.40;100.00
13434;BME280;6789;47.678;9.158;2023-07-13T05:32:36;96902.94;;;20.49;100.00
13434;BME280;6789;47.678;9.158;2023-07-13T05:38:54;96899.13;;;20.55;100.00
13434;BME280;6789;47.678;9.158;2023-07-13T05:50:06;96911.72;;;21.01;100.00
13434;BME280;6789;47.678;9.158;2023-07-13T05:55:16;96900.44;;;21.27;99.61
13434;BME280;6789;47.678;9.158;2023-07-13T07:36:32;97012.09;;;20.64;89.62
13434;BME280;6789;47.678;9.158;2023-07-13T07:51:54;97021.44;;;19.80;97.74
13434;BME280;6789;47.678;9.158;2023-07-13T08:03:06;97027.16;;;20.07;93.03
13434;BME280;6789;47.678;9.158;2023-07-13T08:44:40;97018.44;;;21.24;84.25
13434;BME280;6789;47.678;9.158;2023-07-13T08:50:15;97015.41;;;22.14;79.94
13434;BME280;6789;47.678;9.158;2023-07-13T08:55:31;97009.41;;;22.40;78.98
13434;BME280;6789;47.678;9.158;2023-07-13T10:26:55;97033.72;;;23.07;59.35
13434;BME280;6789;47.678;9.158;2023-07-13T10:44:34;97031.25;;;23.65;58.23
13434;BME280;6789;47.678;9.158;2023-07-13T10:50:37;97016.19;;;24.17;57.74
13434;BME280;6789;47.678;9.158;2023-07-13T10:56:46;97031.59;;;24.91;55.61
13434;BME280;6789;47.678;9.158;2023-07-13T13:23:23;96962.28;;;25.31;59.44
13434;BME280;6789;47.678;9.158;2023-07-13T14:09:35;96926.97;;;25.63;57.51
13434;BME280;6789;47.678;9.158;2023-07-13T14:14:41;96914.84;;;26.16;58.12
13434;BME280;6789;47.678;9.158;2023-07-13T14:19:51;96916.25;;;26.39;57.80
13434;BME280;6789;47.678;9.158;2023-07-13T14:24:54;96927.44;;;26.75;57.35
13434;BME280;6789;47.678;9.158;2023-07-13T14:29:56;96930.03;;;25.95;59.08
13434;BME280;6789;47.678;9.158;2023-07-13T14:34:48;96932.09;;;26.15;58.85
13434;BME280;6789;47.678;9.158;2023-07-13T14:39:44;96937.31;;;26.37;58.89
13434;BME280;6789;47.678;9.158;2023-07-13T14:44:38;96937.59;;;26.61;58.59
13434;BME280;6789;47.678;9.158;2023-07-13T14:49:42;96930.03;;;25.95;59.94
13434;BME280;6789;47.678;9.158;2023-07-13T14:54:34;96920.53;;;26.40;58.78
13434;BME280;6789;47.678;9.158;2023-07-13T14:59:29;96934.72;;;26.66;57.24
13434;BME280;6789;47.678;9.158;2023-07-13T15:04:22;96932.69;;;26.55;57.50
13434;BME280;6789;47.678;9.158;2023-07-13T15:09:14;96929.41;;;25.90;58.91
13434;BME280;6789;47.678;9.158;2023-07-13T15:14:08;96921.75;;;25.67;60.66
13434;BME280;6789;47.678;9.158;2023-07-13T15:19:00;96924.16;;;25.13;62.70
13434;BME280;6789;47.678;9.158;2023-07-13T15:23:52;96920.81;;;25.54;61.90
13434;BME280;6789;47.678;9.158;2023-07-13T15:28:47;96927.44;;;25.57;62.90
13434;BME280;6789;47.678;9.158;2023-07-13T15:33:39;96927.03;;;24.55;65.45
13434;BME280;6789;47.678;9.158;2023-07-13T15:38:35;96932.72;;;24.10;66.55
13434;BME280;6789;47.678;9.158;2023-07-13T15:43:33;96919.06;;;24.20;66.79
13434;BME280;6789;47.678;9.158;2023-07-13T15:48:26;96918.94;;;24.77;65.12
13434;BME280;6789;47.678;9.158;2023-07-13T15:53:26;96925.09;;;24.78;64.34
13434;BME280;6789;47.678;9.158;2023-07-13T15:58:21;96911.31;;;24.62;65.65
13434;BME280;6789;47.678;9.158;2023-07-13T16:03:13;96915.50;;;24.33;65.98
13434;BME280;6789;47.678;9.158;2023-07-13T16:08:20;96912.38;;;24.92;64.29
13434;BME280;6789;47.678;9.158;2023-07-13T16:13:16;96904.59;;;25.12;59.40
13434;BME280;6789;47.678;9.158;2023-07-13T16:18:08;96914.03;;;25.65;57.53
13434;BME280;6789;47.678;9.158;2023-07-13T16:23:00;96912.78;;;25.88;49.16
13434;BME280;6789;47.678;9.158;2023-07-13T16:28:00;96909.97;;;26.10;49.50
13434;BME280;6789;47.678;9.158;2023-07-13T16:32:53;96904.88;;;26.17;49.94
13434;BME280;6789;47.678;9.158;2023-07-13T16:37:45;96914.50;;;26.35;49.54
13434;BME280;6789;47.678;9.158;2023-07-13T16:42:58;96923.03;;;26.45;49.31
13434;BME280;6789;47.678;9.158;2023-07-13T16:47:51;96927.31;;;26.46;49.12
13434;BME280;6789;47.678;9.158;2023-07-13T16:52:53;96926.56;;;26.37;45.19
13434;BME280;6789;47.678;9.158;2023-07-13T16:57:46;96923.22;;;26.23;42.32
13434;BME280;6789;47.678;9.158;2023-07-13T17:02:39;96920.06;;;26.13;41.60
13434;BME280;6789;47.678;9.158;2023-07-13T17:07:32;96923.22;;;26.23;42.13
13434;BME280;6789;47.678;9.158;2023-07-13T17:12:24;96918.94;;;26.22;42.23
13434;BME280;6789;47.678;9.158;2023-07-13T17:17:24;96916.59;;;26.21;42.75
13434;BME280;6789;47.678;9.158;2023-07-13T17:22:18;96918.63;;;26.15;41.79
13434;BME280;6789;47.678;9.158;2023-07-13T17:27:11;96915.63;;;26.00;41.87
13434;BME280;6789;47.678;9.158;2023-07-13T17:32:15;96926.72;;;25.98;42.75
13434;BME280;6789;47.678;9.158;2023-07-13T17:37:13;96926.22;;;25.96;41.69
13434;BME280;6789;47.678;9.158;2023-07-13T17:42:07;96928.31;;;25.91;42.20
13434;BME280;6789;47.678;9.158;2023-07-13T17:46:59;96931.25;;;25.73;40.51
13434;BME280;6789;47.678;9.158;2023-07-13T17:51:51;96932.72;;;25.79;40.44
13434;BME280;6789;47.678;9.158;2023-07-13T17:56:47;96930.66;;;25.76;40.82
13434;BME280;6789;47.678;9.158;2023-07-13T18:01:39;96934.13;;;25.76;41.24
13434;BME280;6789;47.678;9.158;2023-07-13T18:06:37;96934.41;;;25.58;41.58
13434;BME280;6789;47.678;9.158;2023-07-13T18:11:29;96938.19;;;25.57;41.91
13434;BME280;6789;47.678;9.158;2023-07-13T18:16:25;96944.50;;;25.44;43.10
13434;BME280;6789;47.678;9.158;2023-07-13T18:21:19;96935.75;;;25.22;42.50
13434;BME280;6789;47.678;9.158;2023-07-13T18:26:17;96943.78;;;25.13;42.37
13434;BME280;6789;47.678;9.158;2023-07-13T18:31:17;96951.06;;;24.91;41.91
13434;BME280;6789;47.678;9.158;2023-07-13T18:36:13;96947.25;;;24.83;43.22
13434;BME280;6789;47.678;9.158;2023-07-13T18:41:11;96949.44;;;24.81;44.38
13434;BME280;6789;47.678;9.158;2023-07-13T18:46:19;96950.22;;;24.51;42.86
13434;BME280;6789;47.678;9.158;2023-07-13T18:51:13;96947.38;;;24.35;44.22
13434;BME280;6789;47.678;9.158;2023-07-13T18:56:06;96947.34;;;25.47;42.88
13434;BME280;6789;47.678;9.158;2023-07-13T19:00:59;96957.78;;;25.57;40.67
13434;BME280;6789;47.678;9.158;2023-07-13T19:05:53;96963.09;;;25.02;41.42
13434;BME280;6789;47.678;9.158;2023-07-13T19:10:53;96967.94;;;24.17;43.07
13434;BME280;6789;47.678;9.158;2023-07-13T19:15:45;96977.47;;;23.61;47.40
13434;BME280;6789;47.678;9.158;2023-07-13T19:20:40;96981.56;;;23.05;46.84
13434;BME280;6789;47.678;9.158;2023-07-13T19:25:33;96994.09;;;22.78;47.55
13434;BME280;6789;47.678;9.158;2023-07-13T19:30:25;96991.75;;;22.58;47.54
13434;BME280;6789;47.678;9.158;2023-07-13T19:35:17;96995.06;;;22.36;48.61
13434;BME280;6789;47.678;9.158;2023-07-13T19:40:24;97002.22;;;22.04;50.27
13434;BME280;6789;47.678;9.158;2023-07-13T19:45:22;97017.81;;;21.97;49.07
13434;BME280;6789;47.678;9.158;2023-07-13T19:50:20;97024.25;;;21.73;50.53
13434;BME280;6789;47.678;9.158;2023-07-13T19:55:19;97020.81;;;21.72;52.25
13434;BME280;6789;47.678;9.158;2023-07-13T20:05:08;97034.16;;;21.72;54.13
13434;BME280;6789;47.678;9.158;2023-07-13T20:10:00;97041.78;;;21.60;54.58
13434;BME280;6789;47.678;9.158;2023-07-13T20:14:54;97049.41;;;21.44;55.05
13434;BME280;6789;47.678;9.158;2023-07-13T20:19:47;97054.88;;;21.34;55.65
13434;BME280;6789;47.678;9.158;2023-07-13T20:24:38;97056.25;;;21.31;55.84
13434;BME280;6789;47.678;9.158;2023-07-13T20:29:31;97067.81;;;21.22;57.40
13434;BME280;6789;47.678;9.158;2023-07-13T20:34:27;97063.16;;;21.09;57.31
13434;BME280;6789;47.678;9.158;2023-07-13T20:39:22;97064.28;;;21.03;57.62
13434;BME280;6789;47.678;9.158;2023-07-13T20:44:13;97057.41;;;20.97;59.35
13434;BME280;6789;47.678;9.158;2023-07-13T20:49:08;97061.50;;;20.84;60.31
13434;BME280;6789;47.678;9.158;2023-07-13T20:54:01;97063.81;;;20.63;60.15
13434;BME280;6789;47.678;9.158;2023-07-13T20:58:53;97054.31;;;20.52;60.59
13434;BME280;6789;47.678;9.158;2023-07-13T21:03:44;97054.31;;;20.52;61.71
13434;BME280;6789;47.678;9.158;2023-07-13T21:08:36;97057.59;;;20.39;62.20
13434;BME280;6789;47.678;9.158;2023-07-13T21:13:28;97072.50;;;19.97;63.97
13434;BME280;6789;47.678;9.158;2023-07-13T21:18:25;97075.47;;;19.80;65.77
13434;BME280;6789;47.678;9.158;2023-07-13T21:23:31;97068.63;;;19.64;66.77
13434;BME280;6789;47.678;9.158;2023-07-13T21:28:25;97058.81;;;19.55;67.37
13434;BME280;6789;47.678;9.158;2023-07-13T21:33:18;97057.28;;;19.39;66.50
13434;BME280;6789;47.678;9.158;2023-07-13T21:38:26;97057.34;;;19.24;68.39
13434;BME280;6789;47.678;9.158;2023-07-13T21:43:18;97060.72;;;19.44;69.83
13434;BME280;6789;47.678;9.158;2023-07-13T21:48:10;97067.31;;;19.62;70.12
13434;BME280;6789;47.678;9.158;2023-07-13T21:53:19;97070.81;;;19.47;70.14
13434;BME280;6789;47.678;9.158;2023-07-13T21:58:28;97079.66;;;19.03;71.53
13434;BME280;6789;47.678;9.158;2023-07-13T22:03:32;97082.09;;;18.85;74.03
13434;BME280;6789;47.678;9.158;2023-07-13T22:08:39;97085.53;;;18.70;74.59
13434;BME280;6789;47.678;9.158;2023-07-13T22:13:31;97088.75;;;18.67;76.27
13434;BME280;6789;47.678;9.158;2023-07-13T22:18:26;97083.16;;;18.59;75.38
13434;BME280;6789;47.678;9.158;2023-07-13T22:23:30;97088.19;;;18.85;75.13
13434;BME280;6789;47.678;9.158;2023-07-13T22:28:27;97081.00;;;19.06;74.68
13434;BME280;6789;47.678;9.158;2023-07-13T22:33:22;97093.50;;;18.95;74.31
13434;BME280;6789;47.678;9.158;2023-07-13T22:38:24;97097.50;;;18.83;75.87
13434;BME280;6789;47.678;9.158;2023-07-13T22:43:26;97101.50;;;18.85;74.48
13434;BME280;6789;47.678;9.158;2023-07-13T22:48:59;97094.31;;;18.61;76.10
13434;BME280;6789;47.678;9.158;2023-07-13T22:54:11;97098.53;;;18.42;78.15
13434;BME280;6789;47.678;9.158;2023-07-13T22:59:04;97096.69;;;18.38;78.53
13434;BME280;6789;47.678;9.158;2023-07-13T23:04:24;97092.63;;;18.15;81.69
13434;BME280;6789;47.678;9.158;2023-07-13T23:09:30;97094.78;;;18.23;81.81
13434;BME280;6789;47.678;9.158;2023-07-13T23:14:39;97095.03;;;18.17;81.28
13434;BME280;6789;47.678;9.158;2023-07-13T23:19:45;97106.25;;;18.59;79.43
13434;BME280;6789;47.678;9.158;2023-07-13T23:25:13;97094.59;;;18.69;78.96
13434;BME280;6789;47.678;9.158;2023-07-13T23:30:14;97103.59;;;18.59;79.71
13434;BME280;6789;47.678;9.158;2023-07-13T23:35:15;97096.41;;;18.54;79.70
13434;BME280;6789;47.678;9.158;2023-07-13T23:40:23;97096.16;;;18.36;81.62
13434;BME280;6789;47.678;9.158;2023-07-13T23:45:24;97092.38;;;18.12;81.30
13434;BME280;6789;47.678;9.158;2023-07-13T23:50:24;97085.44;;;18.11;84.05
13434;BME280;6789;47.678;9.158;2023-07-13T23:55:19;97082.31;;;18.29;82.77
